Time;durP1;ratioP1;P1;durP2;ratioP2;P2;SDS_P1;SDS_P2;PMS_P1;PMS_P2;Temp;Humidity;BMP_temperature;BMP_pressure;BME280_temperature;BME280_humidity;BME280_pressure;Samples;Min_cycle;Max_cycle;Signal;HPM_P1;HPM_P2
2022/01/27 00:01:10;;;;;;;;;;;25.40;99.90;;;;;;5055995;28;19908;-70
2022/01/27 00:03:45;;;;;;;;;;;25.30;99.90;;;;;;5055286;28;20319;-71
2022/01/27 00:06:14;;;;;;;;;;;25.20;99.90;;;;;;5055558;28;19921;-72
2022/01/27 00:08:53;;;;;;;;;;;25.50;99.90;;;;;;5055118;28;20249;-72
2022/01/27 00:11:20;;;;;;;;;;;25.60;99.90;;;;;;5055402;28;19909;-71
2022/01/27 00:13:57;;;;;;;;;;;25.60;99.90;;;;;;5054891;28;19915;-72
2022/01/27 00:16:27;;;;;;;;;;;25.60;99.90;;;;;;5055329;28;19952;-71
2022/01/27 00:18:54;;;;;;;;;;;25.70;99.90;;;;;;5055304;28;19912;-71
2022/01/27 00:21:22;;;;;;;;;;;25.70;99.90;;;;;;5055438;28;19912;-73
2022/01/27 00:23:49;;;;;;;;;;;25.80;99.90;;;;;;5055020;28;19920;-71
2022/01/27 00:26:17;;;;;;;;;;;25.90;99.90;;;;;;5055034;28;20271;-72
2022/01/27 00:28:44;;;;;;;;;;;25.90;99.90;;;;;;5055220;28;19925;-72
2022/01/27 00:31:11;;;;;;;;;;;25.80;99.90;;;;;;5055388;28;19917;-72
2022/01/27 00:33:37;;;;;;;;;;;25.70;99.90;;;;;;5055093;28;19909;-71
2022/01/27 00:36:04;;;;;;;;;;;25.80;99.90;;;;;;5054968;28;20355;-71
2022/01/27 00:38:31;;;;;;;;;;;25.90;99.90;;;;;;5054341;28;19913;-71
2022/01/27 00:40:58;;;;;;;;;;;26.00;99.90;;;;;;5055559;28;19913;-71
2022/01/27 00:43:25;;;;;;;;;;;26.20;99.90;;;;;;5054959;28;19931;-71
2022/01/27 00:45:52;;;;;;;;;;;26.10;99.90;;;;;;5054756;28;20016;-72
2022/01/27 00:48:19;;;;;;;;;;;25.90;99.90;;;;;;5054636;28;20000;-71
2022/01/27 00:51:07;;;;;;;;;;;26.00;99.90;;;;;;5054955;28;20007;-71
2022/01/27 00:59:18;;;;;;;;;;;26.40;99.90;;;;;;5053936;28;19993;-71
2022/01/27 01:01:53;;;;;;;;;;;26.50;99.90;;;;;;5053455;28;19934;-71
2022/01/27 01:04:26;;;;;;;;;;;26.80;99.90;;;;;;5054114;28;19990;-70
2022/01/27 01:06:53;;;;;;;;;;;27.20;99.90;;;;;;5054616;28;19924;-70
2022/01/27 01:10:10;;;;;;;;;;;27.60;99.90;;;;;;5054118;28;19916;-70
2022/01/27 01:15:15;;;;;;;;;;;27.70;99.90;;;;;;5054744;28;19916;-71
2022/01/27 01:17:55;;;;;;;;;;;28.10;99.90;;;;;;5054528;28;20376;-73
2022/01/27 01:20:45;;;;;;;;;;;28.20;99.90;;;;;;5054057;28;19915;-71
2022/01/27 01:31:31;;;;;;;;;;;28.60;98.90;;;;;;5054124;28;19939;-70
2022/01/27 01:34:21;;;;;;;;;;;28.80;98.60;;;;;;5053740;28;19917;-69
2022/01/27 01:36:54;;;;;;;;;;;28.70;98.10;;;;;;5053960;28;19909;-70
2022/01/27 01:39:21;;;;;;;;;;;28.80;97.80;;;;;;5053395;28;19909;-71
2022/01/27 01:41:48;;;;;;;;;;;29.10;98.30;;;;;;5053520;28;20362;-70
2022/01/27 01:44:15;;;;;;;;;;;28.90;97.90;;;;;;5053795;28;19913;-71
2022/01/27 01:46:41;;;;;;;;;;;29.00;98.30;;;;;;5053710;28;19948;-72
2022/01/27 01:49:08;;;;;;;;;;;29.10;98.00;;;;;;5053694;28;19913;-71
2022/01/27 01:51:36;;;;;;;;;;;28.80;98.80;;;;;;5053516;28;19909;-72
2022/01/27 01:54:04;;;;;;;;;;;28.50;98.90;;;;;;5053142;28;19909;-71
2022/01/27 01:56:30;;;;;;;;;;;28.10;99.80;;;;;;5053407;28;19912;-72
2022/01/27 01:58:58;;;;;;;;;;;27.90;99.90;;;;;;5053181;28;20011;-71
2022/01/27 02:01:25;;;;;;;;;;;27.60;99.90;;;;;;5053541;28;19919;-71
2022/01/27 02:03:51;;;;;;;;;;;27.80;99.90;;;;;;5052908;28;19947;-71
2022/01/27 02:06:26;;;;;;;;;;;27.80;99.90;;;;;;5053217;28;19912;-71
2022/01/27 02:19:44;;;;;;;;;;;27.10;99.90;;;;;;5053445;28;20267;-71
2022/01/27 02:22:10;;;;;;;;;;;27.10;99.90;;;;;;5052680;28;20271;-71
2022/01/27 02:24:37;;;;;;;;;;;26.90;99.90;;;;;;5053156;28;19909;-71
2022/01/27 02:27:05;;;;;;;;;;;26.90;99.90;;;;;;5052853;28;19921;-71
2022/01/27 02:29:31;;;;;;;;;;;26.80;99.90;;;;;;5052817;28;20314;-71
2022/01/27 02:31:59;;;;;;;;;;;27.00;99.90;;;;;;5052857;28;19916;-71
2022/01/27 02:34:26;;;;;;;;;;;27.30;99.90;;;;;;5052506;28;19913;-72
2022/01/27 02:36:52;;;;;;;;;;;27.40;99.90;;;;;;5052992;28;20005;-71
2022/01/27 02:39:19;;;;;;;;;;;27.40;99.90;;;;;;5052586;28;20264;-71
2022/01/27 02:41:49;;;;;;;;;;;27.30;99.90;;;;;;5052480;28;19909;-72
2022/01/27 02:44:25;;;;;;;;;;;27.20;99.90;;;;;;5052830;28;19948;-71
2022/01/27 02:46:52;;;;;;;;;;;27.20;99.90;;;;;;5052997;28;20382;-72
2022/01/27 02:49:19;;;;;;;;;;;27.20;99.90;;;;;;5052670;28;20007;-71
2022/01/27 02:51:45;;;;;;;;;;;27.00;99.90;;;;;;5052762;28;19997;-72
2022/01/27 02:54:12;;;;;;;;;;;27.00;99.90;;;;;;5052561;28;19963;-71
2022/01/27 02:56:44;;;;;;;;;;;27.20;99.90;;;;;;5052447;28;19959;-71
2022/01/27 02:59:11;;;;;;;;;;;27.30;99.90;;;;;;5052718;28;19916;-72
2022/01/27 03:01:38;;;;;;;;;;;27.20;99.90;;;;;;5052633;28;19955;-72
2022/01/27 03:04:05;;;;;;;;;;;27.10;99.90;;;;;;5051451;28;19921;-72
2022/01/27 03:06:32;;;;;;;;;;;27.00;99.90;;;;;;5052462;28;19974;-72
2022/01/27 03:08:59;;;;;;;;;;;26.90;99.90;;;;;;5052513;28;20355;-72
2022/01/27 03:11:38;;;;;;;;;;;26.90;99.90;;;;;;5052200;28;19977;-72
2022/01/27 03:14:05;;;;;;;;;;;26.50;99.90;;;;;;5052267;28;19909;-70
2022/01/27 03:16:32;;;;;;;;;;;26.50;99.90;;;;;;5052433;28;19908;-70
2022/01/27 03:18:58;;;;;;;;;;;26.60;99.90;;;;;;5052513;28;19923;-70
2022/01/27 03:21:25;;;;;;;;;;;26.70;99.90;;;;;;5052284;28;19995;-71
2022/01/27 03:23:52;;;;;;;;;;;26.60;99.90;;;;;;5051816;28;19909;-71
2022/01/27 03:26:19;;;;;;;;;;;26.80;99.90;;;;;;5051621;28;19924;-72
2022/01/27 03:28:46;;;;;;;;;;;26.70;99.90;;;;;;5052161;28;20352;-70
2022/01/27 03:31:16;;;;;;;;;;;26.50;99.90;;;;;;5052274;28;19968;-70
2022/01/27 03:33:43;;;;;;;;;;;26.50;99.90;;;;;;5051946;28;19913;-70
2022/01/27 03:36:10;;;;;;;;;;;26.50;99.90;;;;;;5051916;28;20004;-72
2022/01/27 03:38:36;;;;;;;;;;;26.50;99.90;;;;;;5051999;28;20383;-69
2022/01/27 03:41:08;;;;;;;;;;;26.50;99.90;;;;;;5051738;28;19950;-70
2022/01/27 03:43:35;;;;;;;;;;;26.40;99.90;;;;;;5052186;28;20378;-71
2022/01/27 03:46:03;;;;;;;;;;;26.40;99.90;;;;;;5051659;28;19913;-71
2022/01/27 03:48:30;;;;;;;;;;;26.40;99.90;;;;;;5052090;28;19972;-71
2022/01/27 03:50:56;;;;;;;;;;;26.40;99.90;;;;;;5084272;28;19909;-71
2022/01/27 03:53:23;;;;;;;;;;;26.40;99.90;;;;;;5052125;28;20391;-73
2022/01/27 03:55:50;;;;;;;;;;;26.20;99.90;;;;;;5051779;28;19912;-71
2022/01/27 03:58:17;;;;;;;;;;;26.20;99.90;;;;;;5051860;28;19979;-73
2022/01/27 04:00:43;;;;;;;;;;;26.40;99.90;;;;;;5051884;28;19916;-73
2022/01/27 04:03:13;;;;;;;;;;;26.40;99.90;;;;;;5067357;28;20336;-72
2022/01/27 04:05:43;;;;;;;;;;;26.00;99.90;;;;;;5052008;28;19913;-72
2022/01/27 04:08:11;;;;;;;;;;;25.90;99.90;;;;;;5052056;28;20259;-73
2022/01/27 04:10:39;;;;;;;;;;;26.20;99.90;;;;;;5052151;28;19909;-73
2022/01/27 04:13:06;;;;;;;;;;;26.30;99.90;;;;;;5051763;28;20004;-72
2022/01/27 04:15:34;;;;;;;;;;;26.20;99.90;;;;;;5051933;28;19913;-72
2022/01/27 04:18:01;;;;;;;;;;;26.20;99.90;;;;;;5051557;28;19995;-72
2022/01/27 04:20:27;;;;;;;;;;;26.20;99.90;;;;;;5051719;28;19991;-72
2022/01/27 04:22:54;;;;;;;;;;;26.30;99.90;;;;;;5051550;28;20355;-70
2022/01/27 04:25:21;;;;;;;;;;;26.30;99.90;;;;;;5051671;28;20046;-70
2022/01/27 04:27:52;;;;;;;;;;;26.40;99.90;;;;;;5051179;28;19917;-70
2022/01/27 04:30:21;;;;;;;;;;;26.40;99.90;;;;;;5051553;28;19909;-70
2022/01/27 04:32:58;;;;;;;;;;;26.20;99.90;;;;;;5083760;28;19917;-72
2022/01/27 04:35:27;;;;;;;;;;;26.00;99.90;;;;;;5052017;28;19909;-71
2022/01/27 04:40:52;;;;;;;;;;;26.10;99.90;;;;;;5055374;28;19951;-72
2022/01/27 04:46:18;;;;;;;;;;;26.30;99.90;;;;;;5054970;28;19959;-70
2022/01/27 04:48:40;;;;;;;;;;;26.30;99.90;;;;;;5054488;28;19917;-70
2022/01/27 04:51:10;;;;;;;;;;;26.30;99.90;;;;;;5054848;28;19913;-72
2022/01/27 04:53:47;;;;;;;;;;;26.20;99.90;;;;;;5054552;28;19908;-71
2022/01/27 04:56:15;;;;;;;;;;;26.10;99.90;;;;;;5054571;28;19908;-70
2022/01/27 04:58:45;;;;;;;;;;;25.90;99.90;;;;;;5054841;28;19966;-71
2022/01/27 05:01:13;;;;;;;;;;;26.20;99.90;;;;;;5054832;28;20051;-71
2022/01/27 05:04:16;;;;;;;;;;;26.20;99.90;;;;;;5054731;28;19932;-74
2022/01/27 05:06:43;;;;;;;;;;;26.00;99.90;;;;;;5054493;28;19924;-70
2022/01/27 05:09:10;;;;;;;;;;;26.10;99.90;;;;;;5054683;28;20282;-72
2022/01/27 05:11:45;;;;;;;;;;;26.00;99.90;;;;;;5054424;28;20389;-71
2022/01/27 05:14:14;;;;;;;;;;;26.00;99.90;;;;;;5087009;28;20058;-71
2022/01/27 05:16:41;;;;;;;;;;;26.00;99.90;;;;;;5054634;28;20000;-70
2022/01/27 05:19:08;;;;;;;;;;;26.00;99.90;;;;;;5054518;28;19909;-70
2022/01/27 05:21:35;;;;;;;;;;;25.90;99.90;;;;;;5054567;28;19908;-72
2022/01/27 05:24:02;;;;;;;;;;;25.70;99.90;;;;;;5054226;28;19909;-71
2022/01/27 05:26:52;;;;;;;;;;;25.70;99.90;;;;;;5054559;28;20279;-71
2022/01/27 05:29:19;;;;;;;;;;;25.80;99.90;;;;;;5054264;28;19919;-73
2022/01/27 05:31:46;;;;;;;;;;;25.70;99.90;;;;;;5054432;28;19913;-71
2022/01/27 05:34:21;;;;;;;;;;;25.80;99.90;;;;;;5054402;28;19909;-70
2022/01/27 05:36:48;;;;;;;;;;;25.80;99.90;;;;;;5052792;28;19913;-70
2022/01/27 05:39:15;;;;;;;;;;;25.80;99.90;;;;;;5053953;28;19908;-71
2022/01/27 05:41:42;;;;;;;;;;;25.80;99.90;;;;;;5053620;28;19908;-70
2022/01/27 05:44:09;;;;;;;;;;;25.80;99.90;;;;;;5053099;28;19919;-71
2022/01/27 05:46:36;;;;;;;;;;;26.10;99.90;;;;;;5053429;28;19913;-73
2022/01/27 05:49:03;;;;;;;;;;;25.90;99.90;;;;;;5053162;28;19916;-71
2022/01/27 05:51:30;;;;;;;;;;;25.80;99.90;;;;;;5052068;28;19909;-72
2022/01/27 05:53:56;;;;;;;;;;;25.80;99.90;;;;;;5051915;28;20376;-73
2022/01/27 05:56:23;;;;;;;;;;;25.90;99.90;;;;;;5051722;28;20379;-72
2022/01/27 05:58:50;;;;;;;;;;;25.60;99.90;;;;;;5052076;28;20291;-74
2022/01/27 06:01:16;;;;;;;;;;;25.70;99.90;;;;;;5051981;28;19909;-73
2022/01/27 06:03:43;;;;;;;;;;;25.60;99.90;;;;;;5051546;28;19925;-73
2022/01/27 06:06:10;;;;;;;;;;;25.70;99.90;;;;;;5051064;28;19920;-73
2022/01/27 06:08:36;;;;;;;;;;;25.70;99.90;;;;;;5051778;28;19915;-73
2022/01/27 06:11:03;;;;;;;;;;;25.60;99.90;;;;;;5051319;28;19921;-72
2022/01/27 06:13:30;;;;;;;;;;;25.70;99.90;;;;;;5051545;28;20010;-73
2022/01/27 06:15:56;;;;;;;;;;;25.70;99.90;;;;;;5051345;28;19913;-74
2022/01/27 06:18:23;;;;;;;;;;;25.70;99.90;;;;;;5051607;28;19939;-73
2022/01/27 06:20:50;;;;;;;;;;;25.70;99.90;;;;;;5051459;28;19912;-73
2022/01/27 06:23:16;;;;;;;;;;;25.80;99.90;;;;;;5058446;28;19957;-73
2022/01/27 06:25:43;;;;;;;;;;;25.90;99.90;;;;;;5069990;28;19915;-73
2022/01/27 06:28:10;;;;;;;;;;;25.80;99.90;;;;;;5071121;28;19920;-73
2022/01/27 06:30:36;;;;;;;;;;;25.70;99.90;;;;;;5070952;28;20037;-72
2022/01/27 06:33:04;;;;;;;;;;;25.60;99.90;;;;;;5071466;28;19927;-74
2022/01/27 06:35:31;;;;;;;;;;;25.50;99.90;;;;;;5071707;28;19970;-72
2022/01/27 06:37:57;;;;;;;;;;;25.50;99.90;;;;;;5071057;28;19927;-71
2022/01/27 06:40:24;;;;;;;;;;;25.40;99.90;;;;;;5074440;28;19919;-70
2022/01/27 06:42:51;;;;;;;;;;;25.40;99.90;;;;;;5071178;28;19919;-71
2022/01/27 06:45:17;;;;;;;;;;;25.40;99.90;;;;;;5070657;28;19912;-71
2022/01/27 06:47:44;;;;;;;;;;;25.40;99.90;;;;;;5070822;28;19966;-72
2022/01/27 06:50:10;;;;;;;;;;;25.50;99.90;;;;;;5070358;28;19916;-71
2022/01/27 06:52:37;;;;;;;;;;;25.40;99.90;;;;;;5070972;28;20371;-71
2022/01/27 06:55:05;;;;;;;;;;;25.20;99.90;;;;;;5065708;28;19913;-72
2022/01/27 06:57:33;;;;;;;;;;;25.10;99.90;;;;;;5050234;28;19908;-70
2022/01/27 07:00:00;;;;;;;;;;;25.10;99.90;;;;;;5048638;28;19923;-70
2022/01/27 07:02:27;;;;;;;;;;;25.00;99.90;;;;;;5050499;28;20615;-72
2022/01/27 07:04:54;;;;;;;;;;;25.00;99.90;;;;;;5050229;28;19931;-71
2022/01/27 07:07:20;;;;;;;;;;;25.00;99.90;;;;;;5050264;28;19917;-70
2022/01/27 07:09:47;;;;;;;;;;;25.00;99.90;;;;;;5049619;28;20344;-72
2022/01/27 07:12:14;;;;;;;;;;;25.10;99.90;;;;;;5050040;28;19916;-70
2022/01/27 07:14:40;;;;;;;;;;;25.10;99.90;;;;;;5050216;28;20356;-71
2022/01/27 07:17:07;;;;;;;;;;;25.00;99.90;;;;;;5050457;28;19951;-73
2022/01/27 07:19:34;;;;;;;;;;;25.00;99.90;;;;;;5050106;28;19920;-71
2022/01/27 07:22:00;;;;;;;;;;;24.90;99.90;;;;;;5049907;28;19920;-71
2022/01/27 07:24:27;;;;;;;;;;;24.80;99.90;;;;;;5049566;28;19935;-71
2022/01/27 07:26:54;;;;;;;;;;;24.80;99.90;;;;;;5050053;28;19962;-72
2022/01/27 07:29:20;;;;;;;;;;;24.80;99.90;;;;;;5050052;28;19991;-71
2022/01/27 07:31:47;;;;;;;;;;;24.70;99.90;;;;;;5049900;28;19909;-71
2022/01/27 07:34:14;;;;;;;;;;;24.60;99.90;;;;;;5049881;28;19908;-74
2022/01/27 07:36:41;;;;;;;;;;;24.60;99.90;;;;;;5049799;28;19909;-70
2022/01/27 07:39:14;;;;;;;;;;;24.60;99.90;;;;;;5049996;28;19913;-70
2022/01/27 07:41:41;;;;;;;;;;;24.50;99.90;;;;;;5049564;28;19935;-71
2022/01/27 07:44:07;;;;;;;;;;;24.50;99.90;;;;;;5049565;28;20087;-71
2022/01/27 07:46:34;;;;;;;;;;;24.50;99.90;;;;;;5049940;28;19920;-70
2022/01/27 07:49:01;;;;;;;;;;;24.50;99.90;;;;;;5049536;28;19913;-71
2022/01/27 07:51:27;;;;;;;;;;;24.40;99.90;;;;;;5050034;28;19909;-70
2022/01/27 07:53:54;;;;;;;;;;;24.30;99.90;;;;;;5049703;28;19913;-71
2022/01/27 07:56:21;;;;;;;;;;;24.30;99.90;;;;;;5049059;28;19919;-72
2022/01/27 07:58:47;;;;;;;;;;;24.30;99.90;;;;;;5049914;28;19990;-72
2022/01/27 08:01:14;;;;;;;;;;;24.30;99.90;;;;;;5049956;28;19948;-71
2022/01/27 08:03:41;;;;;;;;;;;24.30;99.90;;;;;;5049616;28;19954;-71
2022/01/27 08:06:08;;;;;;;;;;;24.30;99.90;;;;;;5050465;28;19920;-71
2022/01/27 08:08:34;;;;;;;;;;;24.20;99.90;;;;;;5051539;28;19920;-71
2022/01/27 08:11:02;;;;;;;;;;;24.20;99.90;;;;;;5052886;28;19909;-71
2022/01/27 08:13:28;;;;;;;;;;;24.20;99.90;;;;;;5055679;28;20306;-71
2022/01/27 08:15:55;;;;;;;;;;;24.30;99.90;;;;;;5055664;28;19909;-72
2022/01/27 08:18:22;;;;;;;;;;;24.20;99.90;;;;;;5055472;28;20317;-73
2022/01/27 08:20:49;;;;;;;;;;;24.10;99.90;;;;;;5055784;28;19955;-73
2022/01/27 08:23:15;;;;;;;;;;;24.00;99.90;;;;;;5055571;28;19909;-72
2022/01/27 08:25:42;;;;;;;;;;;24.00;99.90;;;;;;5054838;28;19913;-72
2022/01/27 08:28:32;;;;;;;;;;;24.00;99.90;;;;;;5055087;28;20359;-73
2022/01/27 08:30:59;;;;;;;;;;;24.00;99.90;;;;;;5055564;28;20313;-73
2022/01/27 08:33:29;;;;;;;;;;;24.00;99.90;;;;;;5055541;28;20003;-71
2022/01/27 08:35:58;;;;;;;;;;;24.00;99.90;;;;;;5055270;28;20306;-72
2022/01/27 08:38:26;;;;;;;;;;;23.90;99.90;;;;;;5055292;28;19952;-73
2022/01/27 08:40:52;;;;;;;;;;;23.90;99.90;;;;;;5055313;28;19940;-71
2022/01/27 08:43:19;;;;;;;;;;;23.90;99.90;;;;;;5055261;28;19920;-73
2022/01/27 08:45:46;;;;;;;;;;;23.90;99.90;;;;;;5053773;28;19916;-72
2022/01/27 08:48:17;;;;;;;;;;;23.80;99.90;;;;;;5054812;28;19920;-73
2022/01/27 08:50:51;;;;;;;;;;;23.90;99.90;;;;;;5055233;28;19909;-71
2022/01/27 08:53:18;;;;;;;;;;;23.80;99.90;;;;;;5055187;28;19954;-72
2022/01/27 08:55:45;;;;;;;;;;;23.80;99.90;;;;;;5054418;28;19963;-73
2022/01/27 08:58:11;;;;;;;;;;;23.70;99.90;;;;;;5054721;28;19909;-72
2022/01/27 09:00:38;;;;;;;;;;;23.80;99.90;;;;;;5055136;28;19909;-72
2022/01/27 09:03:05;;;;;;;;;;;23.80;99.90;;;;;;5054848;28;21079;-73
2022/01/27 09:05:32;;;;;;;;;;;23.70;99.90;;;;;;5054865;28;19998;-71
2022/01/27 09:07:58;;;;;;;;;;;23.70;99.90;;;;;;5054394;28;19928;-70
2022/01/27 09:10:31;;;;;;;;;;;23.70;99.90;;;;;;5054725;28;20253;-70
2022/01/27 09:12:59;;;;;;;;;;;23.70;99.90;;;;;;5054848;28;19909;-71
2022/01/27 09:15:26;;;;;;;;;;;23.60;99.90;;;;;;5054381;28;19942;-71
2022/01/27 09:17:55;;;;;;;;;;;23.70;99.90;;;;;;5054166;28;20150;-72
2022/01/27 09:20:23;;;;;;;;;;;23.70;99.90;;;;;;5054621;28;19917;-70
2022/01/27 09:22:52;;;;;;;;;;;23.70;99.90;;;;;;5053463;28;19915;-72
2022/01/27 09:25:23;;;;;;;;;;;23.60;99.90;;;;;;5054548;28;19963;-73
2022/01/27 09:27:52;;;;;;;;;;;23.60;99.90;;;;;;5054227;28;20257;-72
2022/01/27 09:30:19;;;;;;;;;;;23.60;99.90;;;;;;5054529;28;19955;-71
2022/01/27 09:32:46;;;;;;;;;;;23.60;99.90;;;;;;5054557;28;19909;-71
2022/01/27 09:35:13;;;;;;;;;;;23.60;99.90;;;;;;5053434;28;19948;-71
2022/01/27 09:37:39;;;;;;;;;;;23.60;99.90;;;;;;5054400;28;20401;-70
2022/01/27 09:40:07;;;;;;;;;;;23.60;99.90;;;;;;5054367;28;19936;-71
2022/01/27 09:42:36;;;;;;;;;;;23.60;99.90;;;;;;5054328;28;19912;-71
2022/01/27 09:45:05;;;;;;;;;;;23.60;99.90;;;;;;5054428;28;19909;-70
2022/01/27 09:47:34;;;;;;;;;;;23.50;99.90;;;;;;5053980;28;19917;-71
2022/01/27 09:51:23;;;;;;;;;;;23.50;99.90;;;;;;5053912;28;19963;-70
2022/01/27 09:52:57;;;;;;;;;;;23.40;99.90;;;;;;5048958;28;19924;-73
2022/01/27 09:55:24;;;;;;;;;;;23.50;99.90;;;;;;5057890;28;19976;-71
2022/01/27 09:57:58;;;;;;;;;;;23.40;99.90;;;;;;5073065;28;19962;-73
2022/01/27 10:00:25;;;;;;;;;;;23.40;99.90;;;;;;5073845;28;19908;-72
2022/01/27 10:03:05;;;;;;;;;;;23.40;99.90;;;;;;5073455;28;20344;-74
2022/01/27 10:05:32;;;;;;;;;;;23.40;99.90;;;;;;5063520;28;19913;-73
2022/01/27 10:23:16;;;;;;;;;;;23.20;99.90;;;;;;5115857;27;19926;-73
2022/01/27 10:25:48;;;;;;;;;;;23.20;99.90;;;;;;5069293;28;19912;-72
2022/01/27 10:28:47;;;;;;;;;;;23.30;99.90;;;;;;5067086;28;19909;-73
2022/01/27 10:31:21;;;;;;;;;;;23.30;99.90;;;;;;5069705;28;19991;-72
2022/01/27 10:33:47;;;;;;;;;;;23.30;99.90;;;;;;5069133;28;19908;-72
2022/01/27 10:36:25;;;;;;;;;;;23.30;99.90;;;;;;5069485;28;19952;-71
2022/01/27 10:38:53;;;;;;;;;;;23.30;99.90;;;;;;5069047;28;19909;-72
2022/01/27 10:41:21;;;;;;;;;;;23.30;99.90;;;;;;5069347;28;19921;-73
2022/01/27 10:43:48;;;;;;;;;;;23.30;99.90;;;;;;5068313;28;19916;-72
2022/01/27 10:48:49;;;;;;;;;;;23.30;99.90;;;;;;5069092;28;20329;-72
2022/01/27 10:51:23;;;;;;;;;;;23.30;99.90;;;;;;5069401;28;19908;-74
2022/01/27 10:53:54;;;;;;;;;;;23.40;99.90;;;;;;5068682;28;19962;-73
2022/01/27 10:56:24;;;;;;;;;;;23.30;99.90;;;;;;5068784;28;19948;-71
2022/01/27 10:58:51;;;;;;;;;;;23.40;99.90;;;;;;5068202;28;19909;-72
2022/01/27 11:01:22;;;;;;;;;;;23.40;99.90;;;;;;5069074;28;20094;-71
2022/01/27 11:03:53;;;;;;;;;;;23.40;99.90;;;;;;5068512;28;19913;-72
2022/01/27 11:06:25;;;;;;;;;;;23.30;99.90;;;;;;5068726;28;19909;-71
2022/01/27 11:08:54;;;;;;;;;;;23.40;99.90;;;;;;5068799;28;19916;-72
2022/01/27 11:11:22;;;;;;;;;;;23.40;99.90;;;;;;5068795;28;19909;-72
2022/01/27 11:13:50;;;;;;;;;;;23.30;99.90;;;;;;5067791;28;19909;-72
2022/01/27 11:16:21;;;;;;;;;;;23.40;99.90;;;;;;5068744;28;19943;-72
2022/01/27 11:18:48;;;;;;;;;;;23.40;99.90;;;;;;5068590;28;19909;-73
2022/01/27 11:21:33;;;;;;;;;;;23.40;99.90;;;;;;5068424;28;19960;-72
2022/01/27 11:24:14;;;;;;;;;;;23.40;99.90;;;;;;5068054;28;19909;-71
2022/01/27 11:26:43;;;;;;;;;;;23.30;99.90;;;;;;5067722;28;19963;-73
2022/01/27 11:29:10;;;;;;;;;;;23.40;99.90;;;;;;5067966;28;19916;-72
2022/01/27 11:31:46;;;;;;;;;;;23.40;99.90;;;;;;5068334;28;20418;-72
2022/01/27 11:34:13;;;;;;;;;;;23.30;99.90;;;;;;5055338;28;19909;-73
2022/01/27 11:36:59;;;;;;;;;;;23.30;99.90;;;;;;5054843;28;19913;-75
2022/01/27 11:39:45;;;;;;;;;;;23.30;99.90;;;;;;5054799;28;20000;-72
2022/01/27 11:42:12;;;;;;;;;;;23.30;99.90;;;;;;5054052;28;20016;-72
2022/01/27 11:44:39;;;;;;;;;;;23.30;99.90;;;;;;5054602;28;20259;-73
2022/01/27 11:49:59;;;;;;;;;;;23.30;99.90;;;;;;5054641;28;19928;-73
2022/01/27 11:52:30;;;;;;;;;;;23.20;99.90;;;;;;5054625;28;19917;-72
2022/01/27 11:54:58;;;;;;;;;;;23.20;99.90;;;;;;5054401;28;19913;-72
2022/01/27 11:57:41;;;;;;;;;;;23.10;99.90;;;;;;5054285;28;19920;-74
2022/01/27 12:00:09;;;;;;;;;;;23.10;99.90;;;;;;5054330;28;20426;-73
2022/01/27 12:02:54;;;;;;;;;;;23.10;99.90;;;;;;5054102;28;19917;-72
2022/01/27 12:05:21;;;;;;;;;;;23.10;99.90;;;;;;5054428;28;19911;-72
2022/01/27 12:08:05;;;;;;;;;;;23.10;99.90;;;;;;5053924;28;19916;-75
2022/01/27 12:11:00;;;;;;;;;;;23.10;99.90;;;;;;5054274;28;19923;-73
2022/01/27 12:13:28;;;;;;;;;;;23.10;99.90;;;;;;5054352;28;20003;-74
2022/01/27 12:19:04;;;;;;;;;;;23.10;99.90;;;;;;5053914;28;19908;-72
2022/01/27 12:21:41;;;;;;;;;;;23.10;99.90;;;;;;5086277;28;19924;-72
2022/01/27 12:24:11;;;;;;;;;;;23.10;99.90;;;;;;5053910;28;19910;-74
2022/01/27 12:26:49;;;;;;;;;;;23.10;99.90;;;;;;5054316;28;19935;-74
2022/01/27 12:29:25;;;;;;;;;;;23.10;99.90;;;;;;5054181;28;19913;-75
2022/01/27 12:31:53;;;;;;;;;;;23.10;99.90;;;;;;5053891;28;19909;-72
2022/01/27 12:34:20;;;;;;;;;;;23.10;99.90;;;;;;5054087;28;19915;-72
2022/01/27 12:37:05;;;;;;;;;;;23.10;99.90;;;;;;5054036;28;19913;-73
2022/01/27 12:39:49;;;;;;;;;;;23.10;99.90;;;;;;5054084;28;19916;-72
2022/01/27 12:42:17;;;;;;;;;;;23.10;99.90;;;;;;5053960;28;20390;-73
2022/01/27 12:44:54;;;;;;;;;;;23.10;99.90;;;;;;5052860;28;19912;-72
2022/01/27 12:47:21;;;;;;;;;;;23.10;99.90;;;;;;5085770;28;19954;-73
2022/01/27 12:50:01;;;;;;;;;;;23.10;99.90;;;;;;5053194;28;20007;-73
2022/01/27 12:52:31;;;;;;;;;;;23.10;99.90;;;;;;5053866;28;19913;-71
2022/01/27 12:54:58;;;;;;;;;;;23.20;99.90;;;;;;5053675;28;19913;-74
2022/01/27 12:57:25;;;;;;;;;;;23.10;99.90;;;;;;5053823;28;20260;-71
2022/01/27 12:59:54;;;;;;;;;;;23.10;99.90;;;;;;5053454;28;19959;-74
2022/01/27 13:02:21;;;;;;;;;;;23.10;99.90;;;;;;5053509;28;19963;-70
2022/01/27 13:04:49;;;;;;;;;;;23.10;99.90;;;;;;5053559;28;20356;-70
2022/01/27 13:07:16;;;;;;;;;;;23.00;99.90;;;;;;5053514;28;19909;-71
2022/01/27 13:09:44;;;;;;;;;;;23.10;99.90;;;;;;5053293;28;19916;-71
2022/01/27 13:12:12;;;;;;;;;;;23.10;99.90;;;;;;5053262;28;20276;-71
2022/01/27 13:14:49;;;;;;;;;;;23.10;99.90;;;;;;5053541;28;20276;-74
2022/01/27 13:17:25;;;;;;;;;;;23.10;99.90;;;;;;5053327;28;19950;-71
2022/01/27 13:19:57;;;;;;;;;;;23.10;99.90;;;;;;5053126;28;19940;-72
2022/01/27 13:22:31;;;;;;;;;;;23.10;99.90;;;;;;5052947;28;19943;-72
2022/01/27 13:24:58;;;;;;;;;;;23.10;99.90;;;;;;5053140;28;19908;-71
2022/01/27 13:27:25;;;;;;;;;;;23.10;99.90;;;;;;5053153;28;19924;-71
2022/01/27 13:29:52;;;;;;;;;;;23.10;99.90;;;;;;5052981;28;19962;-71
2022/01/27 13:32:22;;;;;;;;;;;23.10;99.90;;;;;;5053002;28;20267;-71
2022/01/27 13:34:49;;;;;;;;;;;23.10;99.90;;;;;;5053020;28;20363;-71
2022/01/27 13:37:38;;;;;;;;;;;23.10;99.90;;;;;;5053154;28;19952;-71
2022/01/27 13:42:53;;;;;;;;;;;23.10;99.90;;;;;;5052936;28;19970;-71
2022/01/27 13:45:21;;;;;;;;;;;23.10;99.90;;;;;;5052852;28;19909;-71
2022/01/27 13:47:48;;;;;;;;;;;23.10;99.90;;;;;;5052791;28;19908;-71
2022/01/27 13:50:16;;;;;;;;;;;23.10;99.90;;;;;;5052729;28;19915;-74
2022/01/27 13:52:45;;;;;;;;;;;23.10;99.90;;;;;;5052697;28;19909;-74
2022/01/27 13:55:14;;;;;;;;;;;23.10;99.90;;;;;;5052631;28;19967;-74
2022/01/27 13:57:51;;;;;;;;;;;23.10;99.90;;;;;;5052644;28;19968;-74
2022/01/27 14:00:21;;;;;;;;;;;23.10;99.90;;;;;;5052840;28;20268;-73
2022/01/27 14:02:52;;;;;;;;;;;23.10;99.90;;;;;;5052656;28;19917;-74
2022/01/27 14:05:20;;;;;;;;;;;23.10;99.90;;;;;;5052704;28;19909;-72
2022/01/27 14:08:00;;;;;;;;;;;23.00;99.90;;;;;;5052366;28;19913;-73
2022/01/27 14:10:41;;;;;;;;;;;23.10;99.90;;;;;;5052694;28;19963;-73
2022/01/27 14:13:17;;;;;;;;;;;23.10;99.90;;;;;;5052474;28;19909;-74
2022/01/27 14:15:47;;;;;;;;;;;23.00;99.90;;;;;;5052503;28;19913;-74
2022/01/27 14:18:15;;;;;;;;;;;23.10;99.90;;;;;;5052502;28;19966;-74
2022/01/27 14:20:51;;;;;;;;;;;23.00;99.90;;;;;;5052101;28;20012;-74
2022/01/27 14:23:23;;;;;;;;;;;23.00;99.90;;;;;;5052403;28;19999;-74
2022/01/27 14:25:56;;;;;;;;;;;23.00;99.90;;;;;;5052370;28;19912;-74
2022/01/27 14:28:23;;;;;;;;;;;23.00;99.90;;;;;;5052506;28;19908;-74
2022/01/27 14:30:50;;;;;;;;;;;23.00;99.90;;;;;;5052515;28;19909;-74
2022/01/27 14:33:17;;;;;;;;;;;23.10;99.90;;;;;;5052242;28;20310;-74
2022/01/27 14:35:43;;;;;;;;;;;23.00;99.90;;;;;;5052312;28;19912;-74
2022/01/27 14:38:10;;;;;;;;;;;23.00;99.90;;;;;;5051914;28;19913;-74
2022/01/27 14:40:39;;;;;;;;;;;23.00;99.90;;;;;;5052161;28;19915;-74
2022/01/27 14:43:06;;;;;;;;;;;23.00;99.90;;;;;;5052192;28;19909;-74
2022/01/27 14:45:32;;;;;;;;;;;22.90;99.90;;;;;;5052168;28;19908;-74
2022/01/27 14:48:03;;;;;;;;;;;22.90;99.90;;;;;;5052047;28;20069;-74
2022/01/27 14:50:32;;;;;;;;;;;22.90;99.90;;;;;;5052146;28;19909;-73
2022/01/27 14:52:59;;;;;;;;;;;22.90;99.90;;;;;;5052004;28;20272;-72
2022/01/27 14:55:26;;;;;;;;;;;22.90;99.90;;;;;;5052148;28;20442;-74
2022/01/27 14:57:53;;;;;;;;;;;23.00;99.90;;;;;;5067310;28;19917;-73
2022/01/27 15:00:20;;;;;;;;;;;23.00;99.90;;;;;;5052111;28;20442;-71
2022/01/27 15:02:47;;;;;;;;;;;22.90;99.90;;;;;;5051921;28;19927;-72
2022/01/27 15:05:15;;;;;;;;;;;22.90;99.90;;;;;;5051840;28;19917;-74
2022/01/27 15:07:42;;;;;;;;;;;22.90;99.90;;;;;;5052120;28;19971;-72
2022/01/27 15:10:10;;;;;;;;;;;22.90;99.90;;;;;;5055610;28;19909;-71
2022/01/27 15:12:37;;;;;;;;;;;22.90;99.90;;;;;;5087914;28;20315;-71
2022/01/27 15:20:34;;;;;;;;;;;22.80;99.90;;;;;;5054495;28;19916;-71
2022/01/27 15:23:01;;;;;;;;;;;22.80;99.90;;;;;;5055298;28;19924;-72
2022/01/27 15:25:28;;;;;;;;;;;22.80;99.90;;;;;;5055714;28;20000;-70
2022/01/27 15:27:55;;;;;;;;;;;22.70;99.90;;;;;;5055156;28;19913;-70
2022/01/27 15:30:22;;;;;;;;;;;22.80;99.90;;;;;;5055328;28;19909;-71
2022/01/27 15:32:49;;;;;;;;;;;22.80;99.90;;;;;;5055696;28;19915;-70
2022/01/27 15:35:16;;;;;;;;;;;22.80;99.90;;;;;;5055320;28;19909;-71